createdAt,value
2022-12-11T00:03:10.273Z,99.19
2022-12-11T00:07:03.611Z,99.03
2022-12-11T00:10:25.899Z,99.06
2022-12-11T00:14:22.322Z,99.12
2022-12-11T00:17:44.471Z,99.15
2022-12-11T00:21:22.241Z,99.25
2022-12-11T00:25:18.741Z,99.11
2022-12-11T00:28:41.856Z,99.13
2022-12-11T00:32:18.520Z,99.21
2022-12-11T00:36:24.969Z,99.02
2022-12-11T00:40:06.542Z,99.09
2022-12-11T00:43:28.817Z,99.28
2022-12-11T00:47:25.418Z,99.31
2022-12-11T00:51:06.628Z,99.27
2022-12-11T00:54:48.653Z,99.33
2022-12-11T00:58:12.018Z,99.33
2022-12-11T01:02:07.250Z,99.19
2022-12-11T01:05:29.488Z,99.26
2022-12-11T01:09:44.574Z,99.15
2022-12-11T01:13:07.039Z,99.18
2022-12-11T01:16:44.415Z,99.26
2022-12-11T01:20:42.024Z,99.22
2022-12-11T01:24:04.373Z,99.18
2022-12-11T01:28:00.748Z,99.32
2022-12-11T01:31:22.847Z,99.20
2022-12-11T01:35:06.598Z,99.45
2022-12-11T01:38:37.994Z,99.59
2022-12-11T01:42:18.445Z,99.61
2022-12-11T01:46:12.234Z,99.71
2022-12-11T01:49:34.797Z,99.65
2022-12-11T01:53:17.356Z,99.55
2022-12-11T01:56:53.092Z,99.64
2022-12-11T02:00:47.157Z,99.52
2022-12-11T02:04:11.374Z,99.57
2022-12-11T02:07:55.483Z,99.57
2022-12-11T02:11:52.340Z,99.69
2022-12-11T02:15:29.756Z,99.61
2022-12-11T02:19:03.313Z,99.82
2022-12-11T02:22:48.405Z,99.69
2022-12-11T02:26:32.581Z,99.70
2022-12-11T02:30:10.415Z,99.65
2022-12-11T02:34:17.914Z,99.64
2022-12-11T02:37:43.689Z,99.57
2022-12-11T02:41:20.310Z,99.71
2022-12-11T02:45:17.523Z,99.66
2022-12-11T02:48:59.648Z,99.57
2022-12-11T02:52:23.724Z,99.59
2022-12-11T02:56:13.016Z,99.40
2022-12-11T02:59:56.132Z,99.65
2022-12-11T03:03:37.339Z,99.63
2022-12-11T03:07:12.205Z,99.78
2022-12-11T03:10:36.793Z,99.69
2022-12-11T03:14:14.464Z,99.83
2022-12-11T03:18:45.589Z,99.83
2022-12-11T03:22:52.300Z,99.87
2022-12-11T03:26:17.616Z,99.78
2022-12-11T03:30:04.619Z,99.86
2022-12-11T03:33:36.718Z,99.83
2022-12-11T03:37:32.338Z,99.87
2022-12-11T03:40:58.537Z,99.72
2022-12-11T03:44:53.987Z,99.88
2022-12-11T03:48:17.757Z,99.78
2022-12-11T03:51:56.986Z,99.86
2022-12-11T03:55:51.081Z,99.95
2022-12-11T03:59:32.042Z,99.90
2022-12-11T04:03:14.288Z,99.91
2022-12-11T04:06:36.872Z,99.74
2022-12-11T04:10:14.737Z,99.84
2022-12-11T04:14:12.245Z,99.85
2022-12-11T04:18:12.859Z,99.88
2022-12-11T04:21:53.460Z,99.82
2022-12-11T04:25:34.971Z,99.96
2022-12-11T04:29:16.026Z,100.00
2022-12-11T04:32:38.149Z,99.93
2022-12-11T04:36:16.496Z,99.89
2022-12-11T04:39:53.553Z,99.87
2022-12-11T04:43:31.230Z,99.66
2022-12-11T04:47:27.555Z,99.62
2022-12-11T04:51:08.976Z,99.70
2022-12-11T04:54:50.906Z,99.64
2022-12-11T04:58:13.705Z,99.59
2022-12-11T05:01:50.731Z,99.60
2022-12-11T05:05:28.157Z,99.41
2022-12-11T05:09:06.241Z,99.21
2022-12-11T05:12:43.560Z,99.35
2022-12-11T05:16:21.349Z,99.19
2022-12-11T05:20:17.870Z,98.99
2022-12-11T05:23:41.662Z,98.97
2022-12-11T05:27:36.910Z,98.94
2022-12-11T05:31:05.369Z,99.11
2022-12-11T05:34:55.332Z,98.81
2022-12-11T05:38:17.547Z,98.94
2022-12-11T05:41:55.657Z,98.51
2022-12-11T05:45:33.353Z,98.55
2022-12-11T05:49:31.158Z,98.54
2022-12-11T05:52:53.637Z,98.48
2022-12-11T05:56:50.777Z,98.50
2022-12-11T06:00:13.226Z,98.38
2022-12-11T06:04:10.963Z,97.94
2022-12-11T06:07:33.185Z,97.98
2022-12-11T06:11:14.083Z,98.06
2022-12-11T06:14:48.509Z,98.13
2022-12-11T06:18:45.415Z,98.06
2022-12-11T06:22:07.266Z,98.28
2022-12-11T06:25:44.740Z,98.12
2022-12-11T06:29:22.625Z,98.04
2022-12-11T06:33:00.198Z,97.96
2022-12-11T06:36:37.884Z,97.90
2022-12-11T06:40:34.278Z,97.97
2022-12-11T06:43:56.046Z,97.88
2022-12-11T06:47:33.896Z,97.92
2022-12-11T06:51:14.279Z,97.71
2022-12-11T06:54:49.911Z,97.90
2022-12-11T06:58:26.743Z,97.85
2022-12-11T07:02:05.084Z,97.77
2022-12-11T07:05:42.302Z,97.65
2022-12-11T07:09:19.906Z,97.93
2022-12-11T07:13:16.592Z,97.74
2022-12-11T07:16:58.470Z,97.73
2022-12-11T07:20:39.462Z,97.73
2022-12-11T07:24:01.519Z,97.67
2022-12-11T07:27:39.252Z,97.69
2022-12-11T07:31:23.218Z,97.52
2022-12-11T07:34:54.726Z,97.66
2022-12-11T07:38:51.558Z,97.47
2022-12-11T07:42:32.416Z,97.39
2022-12-11T07:46:16.654Z,97.25
2022-12-11T07:49:38.392Z,97.04
2022-12-11T07:53:16.025Z,97.13
2022-12-11T07:57:14.358Z,97.31
2022-12-11T08:00:36.693Z,97.21
2022-12-11T08:04:32.989Z,97.23
2022-12-11T08:07:55.754Z,96.96
2022-12-11T08:11:33.216Z,97.00
2022-12-11T08:15:11.540Z,96.99
2022-12-11T08:19:08.066Z,96.63
2022-12-11T08:22:56.017Z,96.63
2022-12-11T08:26:26.850Z,96.45
2022-12-11T08:30:17.596Z,96.57
2022-12-11T08:33:57.727Z,96.70
2022-12-11T08:37:20.203Z,96.74
2022-12-11T08:41:22.526Z,96.83
2022-12-11T08:44:44.757Z,96.21
2022-12-11T08:48:42.809Z,95.87
2022-12-11T08:52:05.620Z,95.79
2022-12-11T08:56:01.947Z,95.97
2022-12-11T08:59:25.584Z,95.87
2022-12-11T09:03:01.859Z,96.01
2022-12-11T09:06:39.302Z,95.86
2022-12-11T09:10:17.121Z,95.83
2022-12-11T09:13:55.034Z,96.10
2022-12-11T09:17:34.314Z,96.18
2022-12-11T09:21:30.121Z,95.88
2022-12-11T09:24:52.398Z,95.83
2022-12-11T09:28:31.094Z,95.85
2022-12-11T09:32:07.556Z,95.77
2022-12-11T09:35:45.376Z,95.57
2022-12-11T09:39:23.090Z,95.24
2022-12-11T09:43:09.850Z,95.14
2022-12-11T09:46:40.464Z,94.65
2022-12-11T09:50:35.127Z,94.93
2022-12-11T09:54:01.898Z,94.94
2022-12-11T09:57:48.898Z,95.29
2022-12-11T10:01:25.390Z,95.34
2022-12-11T10:05:17.732Z,95.14
2022-12-11T10:09:08.075Z,95.03
2022-12-11T10:12:40.647Z,94.74
2022-12-11T10:16:30.087Z,94.50
2022-12-11T10:19:53.633Z,94.38
2022-12-11T10:23:43.454Z,94.31
2022-12-11T10:27:33.549Z,94.08
2022-12-11T10:31:16.154Z,94.34
2022-12-11T10:35:04.083Z,94.21
2022-12-11T10:38:46.899Z,93.99
2022-12-11T10:42:28.144Z,94.12
2022-12-11T10:46:21.661Z,93.92
2022-12-11T10:50:04.025Z,93.91
2022-12-11T10:53:26.543Z,94.28
2022-12-11T10:57:05.525Z,94.30
2022-12-11T11:00:41.962Z,93.76
2022-12-11T11:04:41.467Z,93.08
2022-12-11T11:08:24.977Z,93.25
2022-12-11T11:12:25.893Z,93.32
2022-12-11T11:15:47.984Z,93.27
2022-12-11T11:19:33.671Z,93.35
2022-12-11T11:23:24.635Z,93.30
2022-12-11T11:27:20.121Z,93.39
2022-12-11T11:30:53.951Z,93.55
2022-12-11T11:34:38.692Z,93.52
2022-12-11T11:38:24.493Z,93.16
2022-12-11T11:42:45.065Z,92.66
2022-12-11T11:46:36.034Z,92.71
2022-12-11T11:50:14.854Z,93.12
2022-12-11T11:54:00.848Z,92.90
2022-12-11T11:57:54.477Z,93.19
2022-12-11T12:01:36.096Z,92.98
2022-12-11T12:04:57.891Z,92.99
2022-12-11T12:09:21.913Z,93.05
2022-12-11T12:12:50.884Z,93.07
2022-12-11T12:16:53.337Z,92.89
2022-12-11T12:20:37.066Z,92.66
2022-12-11T12:24:28.015Z,92.42
2022-12-11T12:28:08.893Z,92.49
2022-12-11T12:31:47.182Z,92.61
2022-12-11T12:35:35.577Z,92.56
2022-12-11T12:39:26.152Z,92.38
2022-12-11T12:43:16.967Z,92.52
2022-12-11T12:46:51.880Z,92.40
2022-12-11T12:50:20.725Z,92.73
2022-12-11T12:54:22.874Z,92.65
2022-12-11T12:57:53.649Z,92.78
2022-12-11T13:01:47.565Z,92.57
2022-12-11T13:05:24.431Z,92.40
2022-12-11T13:08:50.809Z,92.49
2022-12-11T13:12:33.505Z,92.29
2022-12-11T13:16:26.013Z,92.11
2022-12-11T13:20:18.192Z,91.99
2022-12-11T13:23:40.378Z,91.91
2022-12-11T13:27:24.731Z,91.97
2022-12-11T13:31:04.389Z,92.13
2022-12-11T13:34:35.244Z,92.20
2022-12-11T13:38:18.766Z,92.32
2022-12-11T13:41:56.205Z,92.19
2022-12-11T13:45:28.343Z,92.22
2022-12-11T13:49:26.021Z,92.15
2022-12-11T13:52:56.328Z,92.33
2022-12-11T13:56:27.883Z,92.37
2022-12-11T14:00:04.558Z,92.49
2022-12-11T14:03:48.995Z,92.29
2022-12-11T14:07:34.908Z,92.48
2022-12-11T14:11:00.357Z,92.34
2022-12-11T14:14:45.461Z,92.67
2022-12-11T14:18:21.281Z,92.85
2022-12-11T14:22:02.272Z,92.79
2022-12-11T14:25:31.248Z,92.57
2022-12-11T14:29:27.890Z,92.62
2022-12-11T14:33:10.417Z,92.33
2022-12-11T14:36:36.147Z,92.53
2022-12-11T14:40:17.212Z,92.74
2022-12-11T14:44:00.565Z,92.81
2022-12-11T14:47:34.534Z,92.76
2022-12-11T14:51:07.517Z,92.95
2022-12-11T14:55:12.813Z,92.82
2022-12-11T14:58:43.119Z,92.69
2022-12-11T15:02:23.963Z,92.83
2022-12-11T15:06:44.277Z,92.87
2022-12-11T15:10:07.236Z,92.77
2022-12-11T15:13:54.430Z,93.19
2022-12-11T15:17:22.814Z,93.07
2022-12-11T15:21:07.123Z,92.94
2022-12-11T15:24:56.264Z,92.75
2022-12-11T15:28:34.308Z,92.71
2022-12-11T15:32:23.180Z,92.62
2022-12-11T15:35:57.328Z,92.96
2022-12-11T15:39:23.682Z,93.11
2022-12-11T15:43:20.069Z,93.34
2022-12-11T15:46:42.002Z,93.24
2022-12-11T15:50:25.154Z,93.15
2022-12-11T15:54:16.155Z,92.91
2022-12-11T15:57:44.816Z,92.91
2022-12-11T16:01:16.050Z,93.12
2022-12-11T16:04:54.625Z,93.25
2022-12-11T16:08:31.197Z,93.27
2022-12-11T16:12:27.688Z,93.08
2022-12-11T16:15:51.347Z,92.87
2022-12-11T16:19:46.584Z,92.97
2022-12-11T16:23:09.439Z,93.17
2022-12-11T16:26:46.249Z,93.21
2022-12-11T16:30:25.119Z,93.33
2022-12-11T16:34:01.540Z,93.21
2022-12-11T16:37:59.476Z,93.20
2022-12-11T16:41:23.002Z,93.05
2022-12-11T16:45:08.659Z,93.07
2022-12-11T16:48:36.584Z,93.31
2022-12-11T16:52:18.981Z,93.41
2022-12-11T16:55:52.002Z,93.37
2022-12-11T16:59:48.404Z,93.42
2022-12-11T17:03:32.947Z,93.15
2022-12-11T17:07:15.036Z,92.77
2022-12-11T17:10:42.261Z,92.76
2022-12-11T17:14:33.411Z,92.81
2022-12-11T17:17:55.658Z,93.07
2022-12-11T17:21:33.393Z,93.17
2022-12-11T17:25:11.240Z,93.44
2022-12-11T17:28:48.524Z,93.34
2022-12-11T17:32:27.698Z,93.21
2022-12-11T17:36:07.316Z,93.16
2022-12-11T17:39:41.453Z,92.91
2022-12-11T17:43:37.984Z,92.92
2022-12-11T17:47:00.090Z,92.92
2022-12-11T17:50:46.670Z,93.23
2022-12-11T17:54:34.520Z,93.50
2022-12-11T17:57:56.476Z,93.46
2022-12-11T18:01:34.627Z,93.46
2022-12-11T18:05:12.084Z,93.36
2022-12-11T18:08:49.423Z,93.29
2022-12-11T18:12:45.929Z,92.98
2022-12-11T18:16:30.711Z,92.91
2022-12-11T18:19:52.792Z,93.22
2022-12-11T18:23:31.875Z,93.42
2022-12-11T18:27:27.765Z,93.41
2022-12-11T18:30:50.051Z,93.59
2022-12-11T18:34:28.216Z,93.57
2022-12-11T18:38:24.821Z,93.31
2022-12-11T18:41:58.385Z,93.23
2022-12-11T18:45:30.728Z,93.12
2022-12-11T18:49:08.135Z,93.18
2022-12-11T18:52:45.828Z,93.40
2022-12-11T18:56:23.542Z,93.56
2022-12-11T19:00:07.694Z,93.16
2022-12-11T19:03:38.749Z,92.72
2022-12-11T19:07:16.567Z,92.78
2022-12-11T19:10:54.059Z,93.11
2022-12-11T19:14:31.781Z,92.98
2022-12-11T19:18:16.588Z,93.18
2022-12-11T19:21:48.734Z,93.11
2022-12-11T19:25:46.388Z,93.07
2022-12-11T19:29:09.038Z,93.10
2022-12-11T19:32:46.118Z,92.80
2022-12-11T19:36:43.189Z,92.77
2022-12-11T19:40:25.636Z,92.93
2022-12-11T19:43:49.656Z,93.11
2022-12-11T19:47:45.106Z,93.24
2022-12-11T19:51:29.964Z,93.48
2022-12-11T19:54:52.127Z,93.51
2022-12-11T19:58:30.127Z,93.10
2022-12-11T20:02:07.496Z,93.07
2022-12-11T20:05:45.248Z,93.16
2022-12-11T20:09:25.584Z,92.74
2022-12-11T20:13:20.967Z,92.48
2022-12-11T20:17:09.767Z,92.79
2022-12-11T20:20:29.483Z,93.07
2022-12-11T20:24:21.988Z,93.17
2022-12-11T20:27:49.957Z,93.32
2022-12-11T20:31:46.024Z,93.28
2022-12-11T20:35:09.103Z,92.90
2022-12-11T20:38:48.481Z,92.91
2022-12-11T20:42:24.746Z,93.08
2022-12-11T20:46:01.236Z,92.96
2022-12-11T20:49:57.940Z,93.10
2022-12-11T20:53:20.183Z,93.22
2022-12-11T20:56:58.143Z,93.30
2022-12-11T21:00:39.797Z,93.17
2022-12-11T21:04:13.974Z,93.18
2022-12-11T21:07:54.060Z,92.71
2022-12-11T21:11:29.445Z,92.73
2022-12-11T21:15:07.124Z,92.83
2022-12-11T21:18:44.390Z,93.13
2022-12-11T21:22:21.728Z,92.93
2022-12-11T21:25:59.239Z,92.92
2022-12-11T21:29:36.995Z,92.72
2022-12-11T21:33:14.861Z,92.70
2022-12-11T21:36:56.661Z,92.66
2022-12-11T21:40:30.289Z,93.01
2022-12-11T21:47:54.347Z,92.95
2022-12-11T21:51:37.958Z,92.86
2022-12-11T21:55:12.171Z,92.73
2022-12-11T21:59:06.616Z,92.98
2022-12-11T22:02:28.373Z,92.92
2022-12-11T22:06:06.395Z,93.09
2022-12-11T22:09:43.931Z,93.28
2022-12-11T22:13:21.242Z,93.06
2022-12-11T22:17:18.542Z,93.03
2022-12-11T22:21:00.657Z,92.94
2022-12-11T22:24:22.760Z,92.81
2022-12-11T22:28:00.697Z,92.94
2022-12-11T22:31:57.599Z,92.97
2022-12-11T22:35:38.714Z,93.32
2022-12-11T22:39:19.937Z,93.29
2022-12-11T22:42:42.249Z,93.35
2022-12-11T22:46:21.748Z,93.23
2022-12-11T22:50:16.686Z,93.07
2022-12-11T22:53:57.837Z,92.79
2022-12-11T22:57:38.941Z,93.27
2022-12-11T23:01:02.303Z,93.50
2022-12-11T23:04:39.140Z,93.45
2022-12-11T23:08:17.096Z,93.45
2022-12-11T23:11:55.884Z,93.37
2022-12-11T23:15:31.971Z,93.00
2022-12-11T23:19:11.506Z,92.97
2022-12-11T23:22:47.324Z,93.20
2022-12-11T23:26:27.291Z,93.20
2022-12-11T23:30:02.750Z,93.55
2022-12-11T23:33:59.784Z,93.27
2022-12-11T23:37:22.673Z,93.34
2022-12-11T23:41:01.786Z,93.11
2022-12-11T23:44:37.470Z,93.10
2022-12-11T23:48:15.402Z,92.87
2022-12-11T23:51:52.789Z,93.09
2022-12-11T23:55:30.817Z,93.37
2022-12-11T23:59:26.789Z,93.38
